createdAt,value
2022-11-27T00:01:47.742Z,80.14
2022-11-27T00:04:16.371Z,80.03
2022-11-27T00:06:45.865Z,80.11
2022-11-27T00:09:16.397Z,80.09
2022-11-27T00:11:47.157Z,80.26
2022-11-27T00:14:17.105Z,80.32
2022-11-27T00:16:46.391Z,80.45
2022-11-27T00:19:14.728Z,80.63
2022-11-27T00:21:43.073Z,80.62
2022-11-27T00:24:12.874Z,80.74
2022-11-27T00:26:41.355Z,80.83
2022-11-27T00:29:10.345Z,80.95
2022-11-27T00:31:38.926Z,80.98
2022-11-27T00:34:09.175Z,81.05
2022-11-27T00:36:38.653Z,81.04
2022-11-27T00:39:07.139Z,81.01
2022-11-27T00:41:35.521Z,81.04
2022-11-27T00:44:04.564Z,81.10
2022-11-27T00:46:34.993Z,81.18
2022-11-27T00:49:05.946Z,81.23
2022-11-27T00:51:34.944Z,81.36
2022-11-27T00:54:04.781Z,81.51
2022-11-27T00:56:37.046Z,81.53
2022-11-27T00:59:07.228Z,81.53
2022-11-27T01:01:39.082Z,81.50
2022-11-27T01:04:11.509Z,81.46
2022-11-27T01:06:39.960Z,81.48
2022-11-27T01:09:10.098Z,81.44
2022-11-27T01:11:38.712Z,81.34
2022-11-27T01:14:14.867Z,80.98
2022-11-27T01:16:44.526Z,80.88
2022-11-27T01:19:15.282Z,80.49
2022-11-27T01:21:44.095Z,80.22
2022-11-27T01:24:14.304Z,79.89
2022-11-27T01:26:44.026Z,79.69
2022-11-27T01:29:12.729Z,79.87
2022-11-27T01:31:41.368Z,79.81
2022-11-27T01:34:15.867Z,79.80
2022-11-27T01:36:45.237Z,79.51
2022-11-27T01:39:19.959Z,79.53
2022-11-27T01:41:49.154Z,79.25
2022-11-27T01:44:23.464Z,79.02
2022-11-27T01:46:58.668Z,78.71
2022-11-27T01:49:33.032Z,78.39
2022-11-27T01:52:09.179Z,78.28
2022-11-27T01:54:43.728Z,78.30
2022-11-27T01:57:29.166Z,78.25
2022-11-27T02:00:00.893Z,78.05
2022-11-27T02:02:29.292Z,77.61
2022-11-27T02:05:00.067Z,77.47
2022-11-27T02:07:28.502Z,77.49
2022-11-27T02:09:56.930Z,77.37
2022-11-27T02:12:37.779Z,77.32
2022-11-27T02:15:17.336Z,77.43
2022-11-27T02:18:06.017Z,77.55
2022-11-27T02:21:07.958Z,77.80
2022-11-27T02:23:56.525Z,77.78
2022-11-27T02:26:48.848Z,77.83
2022-11-27T02:29:25.533Z,77.92
2022-11-27T02:31:58.515Z,78.18
2022-11-27T02:35:11.542Z,78.31
2022-11-27T02:37:42.985Z,78.48
2022-11-27T02:40:13.636Z,78.47
2022-11-27T02:42:48.247Z,78.47
2022-11-27T02:45:22.783Z,78.45
2022-11-27T02:47:51.154Z,78.48
2022-11-27T02:50:25.264Z,78.46
2022-11-27T02:52:59.016Z,78.34
2022-11-27T02:55:32.979Z,78.10
2022-11-27T02:58:04.132Z,77.88
2022-11-27T03:00:34.549Z,77.73
2022-11-27T03:03:08.813Z,77.40
2022-11-27T03:05:42.463Z,77.30
2022-11-27T03:08:19.391Z,77.17
2022-11-27T03:11:12.152Z,76.93
2022-11-27T03:13:47.531Z,76.73
2022-11-27T03:16:26.691Z,76.76
2022-11-27T03:18:54.943Z,76.72
2022-11-27T03:21:35.364Z,76.67
2022-11-27T03:24:04.306Z,76.66
2022-11-27T03:26:32.554Z,76.57
2022-11-27T03:29:03.108Z,76.57
2022-11-27T03:31:31.663Z,76.59
2022-11-27T03:34:00.083Z,76.50
2022-11-27T03:36:28.395Z,76.53
2022-11-27T03:38:56.820Z,76.52
2022-11-27T03:41:31.817Z,76.25
2022-11-27T03:44:00.036Z,76.17
2022-11-27T03:46:40.034Z,76.00
2022-11-27T03:49:20.145Z,75.95
2022-11-27T03:52:02.447Z,75.90
2022-11-27T03:55:08.688Z,75.79
2022-11-27T03:58:09.250Z,75.62
2022-11-27T04:00:41.654Z,75.60
2022-11-27T04:03:12.852Z,75.95
2022-11-27T04:05:41.244Z,76.02
2022-11-27T04:08:09.412Z,76.07
2022-11-27T04:10:37.567Z,76.08
2022-11-27T04:13:05.869Z,75.71
2022-11-27T04:15:34.149Z,75.33
2022-11-27T04:18:02.323Z,75.33
2022-11-27T04:20:30.802Z,75.33
2022-11-27T04:22:59.068Z,75.22
2022-11-27T04:25:27.666Z,75.13
2022-11-27T04:27:55.939Z,75.10
2022-11-27T04:30:24.141Z,75.14
2022-11-27T04:32:52.285Z,75.10
2022-11-27T04:35:20.458Z,75.06
2022-11-27T04:37:48.638Z,75.11
2022-11-27T04:40:17.017Z,75.51
2022-11-27T04:42:45.297Z,75.37
2022-11-27T04:45:14.497Z,75.34
2022-11-27T04:47:42.556Z,75.17
2022-11-27T04:50:11.139Z,75.03
2022-11-27T04:52:39.310Z,74.99
2022-11-27T04:55:09.098Z,74.97
2022-11-27T04:57:37.476Z,74.91
2022-11-27T05:00:06.342Z,74.96
2022-11-27T05:02:34.559Z,74.79
2022-11-27T05:05:03.095Z,74.89
2022-11-27T05:07:31.492Z,74.93
2022-11-27T05:10:01.481Z,74.91
2022-11-27T05:12:29.728Z,74.85
2022-11-27T05:15:00.696Z,74.90
2022-11-27T05:17:32.435Z,74.88
2022-11-27T05:20:00.547Z,74.85
2022-11-27T05:22:28.882Z,74.81
2022-11-27T05:24:57.262Z,74.70
2022-11-27T05:27:25.628Z,74.79
2022-11-27T05:29:53.807Z,74.72
2022-11-27T05:32:22.079Z,74.73
2022-11-27T05:34:50.357Z,74.74
2022-11-27T05:37:19.906Z,74.66
2022-11-27T05:39:48.219Z,74.84
2022-11-27T05:42:16.407Z,74.87
2022-11-27T05:44:44.589Z,74.82
2022-11-27T05:47:12.867Z,74.88
2022-11-27T05:49:41.039Z,74.89
2022-11-27T05:52:09.431Z,75.01
2022-11-27T05:54:38.055Z,75.00
2022-11-27T05:57:06.689Z,74.96
2022-11-27T05:59:34.912Z,74.92
2022-11-27T06:02:03.198Z,74.95
2022-11-27T06:04:34.887Z,74.92
2022-11-27T06:07:03.448Z,74.88
2022-11-27T06:09:31.520Z,74.94
2022-11-27T06:11:59.711Z,74.88
2022-11-27T06:14:28.092Z,74.91
2022-11-27T06:16:56.502Z,74.92
2022-11-27T06:19:25.354Z,74.97
2022-11-27T06:21:53.572Z,74.89
2022-11-27T06:24:21.744Z,75.10
2022-11-27T06:26:51.043Z,75.16
2022-11-27T06:29:19.494Z,75.17
2022-11-27T06:31:47.698Z,75.20
2022-11-27T06:34:15.992Z,75.27
2022-11-27T06:36:44.312Z,75.26
2022-11-27T06:39:12.594Z,75.24
2022-11-27T06:41:40.773Z,75.28
2022-11-27T06:44:10.889Z,75.38
2022-11-27T06:46:39.156Z,75.42
2022-11-27T06:49:07.423Z,75.43
2022-11-27T06:51:36.729Z,75.46
2022-11-27T06:54:05.566Z,75.57
2022-11-27T06:56:34.014Z,75.49
2022-11-27T06:59:02.704Z,75.55
2022-11-27T07:01:33.053Z,75.46
2022-11-27T07:04:01.903Z,75.27
2022-11-27T07:06:30.300Z,75.41
2022-11-27T07:08:58.880Z,75.66
2022-11-27T07:11:30.237Z,75.81
2022-11-27T07:14:01.184Z,75.86
2022-11-27T07:16:32.161Z,75.88
2022-11-27T07:19:05.063Z,75.91
2022-11-27T07:21:34.501Z,75.85
2022-11-27T07:24:02.717Z,75.80
2022-11-27T07:26:31.514Z,75.85
2022-11-27T07:28:59.921Z,75.88
2022-11-27T07:31:30.539Z,75.83
2022-11-27T07:33:59.035Z,75.90
2022-11-27T07:36:31.926Z,75.86
2022-11-27T07:39:00.194Z,75.83
2022-11-27T07:41:33.681Z,75.82
2022-11-27T07:44:03.515Z,75.94
2022-11-27T07:46:32.410Z,75.91
2022-11-27T07:49:02.009Z,75.90
2022-11-27T07:51:31.227Z,75.89
2022-11-27T07:54:00.130Z,75.81
2022-11-27T07:56:30.368Z,75.86
2022-11-27T07:58:59.233Z,75.73
2022-11-27T08:01:28.266Z,75.71
2022-11-27T08:03:57.000Z,75.86
2022-11-27T08:06:27.231Z,75.76
2022-11-27T08:08:57.253Z,75.73
2022-11-27T08:11:30.088Z,75.74
2022-11-27T08:14:04.801Z,75.79
2022-11-27T08:16:35.141Z,75.89
2022-11-27T08:19:03.870Z,75.93
2022-11-27T08:21:33.881Z,76.15
2022-11-27T08:24:05.841Z,76.14
2022-11-27T08:26:35.159Z,76.22
2022-11-27T08:29:08.132Z,76.37
2022-11-27T08:31:37.383Z,76.43
2022-11-27T08:34:06.140Z,76.41
2022-11-27T08:36:34.582Z,76.34
2022-11-27T08:39:03.191Z,76.57
2022-11-27T08:41:31.556Z,76.61
2022-11-27T08:43:59.822Z,76.59
2022-11-27T08:46:28.269Z,76.65
2022-11-27T08:48:56.448Z,76.74
2022-11-27T08:51:24.860Z,76.94
2022-11-27T08:53:53.763Z,76.99
2022-11-27T08:56:25.006Z,77.14
2022-11-27T08:58:53.419Z,77.17
2022-11-27T09:01:27.745Z,77.20
2022-11-27T09:03:57.237Z,77.21
2022-11-27T09:06:29.185Z,77.04
2022-11-27T09:09:02.541Z,77.18
2022-11-27T09:11:32.398Z,77.27
2022-11-27T09:14:02.604Z,77.27
2022-11-27T09:16:31.542Z,77.21
2022-11-27T09:18:59.976Z,77.20
2022-11-27T09:21:31.039Z,77.14
2022-11-27T09:24:01.833Z,77.08
2022-11-27T09:26:31.459Z,77.01
2022-11-27T09:29:00.557Z,77.14
2022-11-27T09:31:29.316Z,77.25
2022-11-27T09:33:58.854Z,77.18
2022-11-27T09:36:28.022Z,77.41
2022-11-27T09:38:59.807Z,77.69
2022-11-27T09:41:49.485Z,77.58
2022-11-27T09:44:47.249Z,77.22
2022-11-27T09:47:28.643Z,77.01
2022-11-27T09:50:16.168Z,76.83
2022-11-27T09:52:52.550Z,76.64
2022-11-27T09:55:26.225Z,76.50
2022-11-27T09:58:39.200Z,76.26
2022-11-27T10:01:27.191Z,76.27
2022-11-27T10:04:03.071Z,76.06
2022-11-27T10:06:34.823Z,75.98
2022-11-27T10:09:13.030Z,76.01
2022-11-27T10:12:00.142Z,76.29
2022-11-27T10:14:47.260Z,76.28
2022-11-27T10:17:44.693Z,76.47
2022-11-27T10:20:31.090Z,76.40
2022-11-27T10:23:06.354Z,76.07
2022-11-27T10:25:45.192Z,76.01
2022-11-27T10:28:35.688Z,75.47
2022-11-27T10:31:11.167Z,75.55
2022-11-27T10:33:55.476Z,75.40
2022-11-27T10:36:44.435Z,75.18
2022-11-27T10:39:24.102Z,75.00
2022-11-27T10:42:00.201Z,74.92
2022-11-27T10:44:33.125Z,74.83
2022-11-27T10:47:09.017Z,74.81
2022-11-27T10:49:42.721Z,75.03
2022-11-27T10:52:18.284Z,74.87
2022-11-27T10:54:57.495Z,74.64
2022-11-27T10:57:51.941Z,74.76
2022-11-27T11:00:27.814Z,74.41
2022-11-27T11:03:06.725Z,74.26
2022-11-27T11:05:57.269Z,74.00
2022-11-27T11:08:26.682Z,73.87
2022-11-27T11:10:59.681Z,73.85
2022-11-27T11:13:42.826Z,73.77
2022-11-27T11:16:14.759Z,73.66
2022-11-27T11:18:50.087Z,73.51
2022-11-27T11:21:39.487Z,73.45
2022-11-27T11:24:23.762Z,73.48
2022-11-27T11:26:56.983Z,73.81
2022-11-27T11:29:32.366Z,73.70
2022-11-27T11:32:16.690Z,73.63
2022-11-27T11:35:00.846Z,73.08
2022-11-27T11:37:32.848Z,73.16
2022-11-27T11:40:08.163Z,73.09
2022-11-27T11:42:38.477Z,72.79
2022-11-27T11:45:19.422Z,72.65
2022-11-27T11:47:51.463Z,72.36
2022-11-27T11:50:35.276Z,72.30
2022-11-27T11:53:16.782Z,72.34
2022-11-27T11:56:12.872Z,72.28
2022-11-27T11:58:53.334Z,72.38
2022-11-27T12:01:40.047Z,72.24
2022-11-27T12:04:44.469Z,72.11
2022-11-27T12:07:16.380Z,71.93
2022-11-27T12:10:21.384Z,72.15
2022-11-27T12:13:00.597Z,72.32
2022-11-27T12:15:44.948Z,72.25
2022-11-27T12:18:39.267Z,72.10
2022-11-27T12:21:38.970Z,71.81
2022-11-27T12:24:26.239Z,71.85
2022-11-27T12:27:12.840Z,71.93
2022-11-27T12:29:53.207Z,72.15
2022-11-27T12:32:39.602Z,71.90
2022-11-27T12:35:47.313Z,72.09
2022-11-27T12:38:44.055Z,72.15
2022-11-27T12:41:12.535Z,72.34
2022-11-27T12:43:49.437Z,72.17
2022-11-27T12:46:51.155Z,72.06
2022-11-27T12:49:41.316Z,72.11
2022-11-27T12:52:10.283Z,71.85
2022-11-27T12:54:48.332Z,71.73
2022-11-27T12:57:22.618Z,71.77
2022-11-27T12:59:57.663Z,71.74
2022-11-27T13:02:43.155Z,71.42
2022-11-27T13:05:26.855Z,71.58
2022-11-27T13:08:30.247Z,71.49
2022-11-27T13:11:05.581Z,71.36
2022-11-27T13:13:40.021Z,71.35
2022-11-27T13:16:19.600Z,71.35
2022-11-27T13:18:58.043Z,71.46
2022-11-27T13:21:34.995Z,71.33
2022-11-27T13:24:04.442Z,71.31
2022-11-27T13:26:57.898Z,71.44
2022-11-27T13:29:32.618Z,71.43
2022-11-27T13:32:03.166Z,71.58
2022-11-27T13:34:33.987Z,71.51
2022-11-27T13:37:07.148Z,71.56
2022-11-27T13:39:42.425Z,71.42
2022-11-27T13:42:24.136Z,71.60
2022-11-27T13:44:54.221Z,72.13
2022-11-27T13:47:25.491Z,72.12
2022-11-27T13:50:04.662Z,71.65
2022-11-27T13:52:35.421Z,71.49
2022-11-27T13:55:10.130Z,71.47
2022-11-27T13:57:39.096Z,71.68
2022-11-27T14:00:13.544Z,71.80
2022-11-27T14:02:47.877Z,71.73
2022-11-27T14:05:20.510Z,71.91
2022-11-27T14:07:52.719Z,71.70
2022-11-27T14:10:24.623Z,71.64
2022-11-27T14:13:03.958Z,71.54
2022-11-27T14:15:35.653Z,71.49
2022-11-27T14:18:10.339Z,71.48
2022-11-27T14:20:49.515Z,71.45
2022-11-27T14:23:37.009Z,71.72
2022-11-27T14:26:15.755Z,71.65
2022-11-27T14:28:48.630Z,71.69
2022-11-27T14:31:34.080Z,71.65
2022-11-27T14:34:24.373Z,71.80
2022-11-27T14:36:53.473Z,71.64
2022-11-27T14:39:32.807Z,71.65
2022-11-27T14:42:06.206Z,71.79
2022-11-27T14:44:35.907Z,71.80
2022-11-27T14:47:08.795Z,71.94
2022-11-27T14:49:38.015Z,72.00
2022-11-27T14:52:13.131Z,71.94
2022-11-27T14:54:45.220Z,72.08
2022-11-27T14:57:32.854Z,72.05
2022-11-27T15:00:16.409Z,72.08
2022-11-27T15:02:52.360Z,72.18
2022-11-27T15:05:29.650Z,72.24
2022-11-27T15:08:01.582Z,72.20
2022-11-27T15:10:36.762Z,72.25
2022-11-27T15:13:08.369Z,72.35
2022-11-27T15:15:43.904Z,72.43
2022-11-27T15:18:39.410Z,72.45
2022-11-27T15:21:13.101Z,72.54
2022-11-27T15:23:47.374Z,72.41
2022-11-27T15:26:36.137Z,72.48
2022-11-27T15:29:42.464Z,72.46
2022-11-27T15:32:23.657Z,72.55
2022-11-27T15:34:57.574Z,72.53
2022-11-27T15:37:36.623Z,72.46
2022-11-27T15:40:25.434Z,72.67
2022-11-27T15:43:05.431Z,72.76
2022-11-27T15:45:38.129Z,72.78
2022-11-27T15:48:18.637Z,72.94
2022-11-27T15:50:51.885Z,73.04
2022-11-27T15:53:22.251Z,73.54
2022-11-27T15:55:52.328Z,73.79
2022-11-27T15:58:22.077Z,74.05
2022-11-27T16:00:53.566Z,74.06
2022-11-27T16:03:24.615Z,73.47
2022-11-27T16:05:53.483Z,73.38
2022-11-27T16:08:24.932Z,73.26
2022-11-27T16:11:05.066Z,73.21
2022-11-27T16:13:37.773Z,73.13
2022-11-27T16:16:10.116Z,73.16
2022-11-27T16:18:40.177Z,73.15
2022-11-27T16:21:12.267Z,73.17
2022-11-27T16:23:44.169Z,73.27
2022-11-27T16:26:18.204Z,73.31
2022-11-27T16:28:50.217Z,73.36
2022-11-27T16:31:24.497Z,73.26
2022-11-27T16:33:55.002Z,73.32
2022-11-27T16:36:27.306Z,73.29
2022-11-27T16:38:56.476Z,73.21
2022-11-27T16:41:27.981Z,73.21
2022-11-27T16:43:58.271Z,73.20
2022-11-27T16:46:30.832Z,73.26
2022-11-27T16:49:01.618Z,73.25
2022-11-27T16:51:34.294Z,73.25
2022-11-27T16:54:06.866Z,73.35
2022-11-27T16:56:39.099Z,73.21
2022-11-27T16:59:10.340Z,73.18
2022-11-27T17:01:41.945Z,73.28
2022-11-27T17:04:21.618Z,73.34
2022-11-27T17:06:51.235Z,73.38
2022-11-27T17:09:23.610Z,73.39
2022-11-27T17:11:53.745Z,73.48
2022-11-27T17:14:23.625Z,73.35
2022-11-27T17:16:53.736Z,73.32
2022-11-27T17:19:24.850Z,73.41
2022-11-27T17:21:54.430Z,73.39
2022-11-27T17:24:26.033Z,73.49
2022-11-27T17:26:56.693Z,73.37
2022-11-27T17:29:33.939Z,73.39
2022-11-27T17:32:10.905Z,73.38
2022-11-27T17:34:41.102Z,73.30
2022-11-27T17:37:13.897Z,73.37
2022-11-27T17:39:45.794Z,73.35
2022-11-27T17:42:21.001Z,73.31
2022-11-27T17:44:53.181Z,73.33
2022-11-27T17:47:23.863Z,73.45
2022-11-27T17:49:52.947Z,73.45
2022-11-27T17:52:21.950Z,73.54
2022-11-27T17:54:52.443Z,73.43
2022-11-27T17:57:22.249Z,73.49
2022-11-27T17:59:52.443Z,73.49
2022-11-27T18:02:21.627Z,73.52
2022-11-27T18:04:50.467Z,73.51
2022-11-27T18:07:20.619Z,73.51
2022-11-27T18:09:54.812Z,73.39
2022-11-27T18:12:23.690Z,73.53
2022-11-27T18:14:57.912Z,73.75
2022-11-27T18:17:30.895Z,73.63
2022-11-27T18:19:59.996Z,73.69
2022-11-27T18:22:28.770Z,73.67
2022-11-27T18:24:57.987Z,73.81
2022-11-27T18:27:28.015Z,73.83
2022-11-27T18:29:57.976Z,73.79
2022-11-27T18:32:27.511Z,73.87
2022-11-27T18:34:57.186Z,73.85
2022-11-27T18:37:26.525Z,73.97
2022-11-27T18:39:56.036Z,73.93
2022-11-27T18:42:26.365Z,74.08
2022-11-27T18:44:57.078Z,74.06
2022-11-27T18:47:27.051Z,74.01
2022-11-27T18:49:59.662Z,73.99
2022-11-27T18:52:29.224Z,74.08
2022-11-27T18:54:58.766Z,74.09
2022-11-27T18:57:30.406Z,74.10
2022-11-27T19:00:00.032Z,74.13
2022-11-27T19:02:31.254Z,74.22
2022-11-27T19:05:00.197Z,74.12
2022-11-27T19:07:30.295Z,74.18
2022-11-27T19:09:59.658Z,74.09
2022-11-27T19:12:28.373Z,74.01
2022-11-27T19:14:59.504Z,74.09
2022-11-27T19:17:32.495Z,74.02
2022-11-27T19:20:02.291Z,74.16
2022-11-27T19:22:34.181Z,74.18
2022-11-27T19:25:05.182Z,74.18
2022-11-27T19:27:35.476Z,74.16
2022-11-27T19:30:05.579Z,74.17
2022-11-27T19:32:34.843Z,74.15
2022-11-27T19:35:07.353Z,73.98
2022-11-27T19:37:38.275Z,74.01
2022-11-27T19:40:10.931Z,74.01
2022-11-27T19:42:40.803Z,73.95
2022-11-27T19:45:10.922Z,73.95
2022-11-27T19:47:40.126Z,73.87
2022-11-27T19:50:10.425Z,73.84
2022-11-27T19:52:41.191Z,73.67
2022-11-27T19:55:12.674Z,73.76
2022-11-27T19:57:44.068Z,73.77
2022-11-27T20:00:14.068Z,73.87
2022-11-27T20:02:46.233Z,73.74
2022-11-27T20:05:18.172Z,73.78
2022-11-27T20:07:49.054Z,73.68
2022-11-27T20:10:19.093Z,73.50
2022-11-27T20:12:53.361Z,73.80
2022-11-27T20:15:22.985Z,73.78
2022-11-27T20:17:53.996Z,73.84
2022-11-27T20:20:24.258Z,73.92
2022-11-27T20:22:54.954Z,73.88
2022-11-27T20:25:26.603Z,74.00
2022-11-27T20:28:07.145Z,74.09
2022-11-27T20:30:42.189Z,74.11
2022-11-27T20:33:18.325Z,74.17
2022-11-27T20:35:50.387Z,74.31
2022-11-27T20:38:21.538Z,74.42
2022-11-27T20:40:53.436Z,74.50
2022-11-27T20:43:23.411Z,74.52
2022-11-27T20:45:53.735Z,74.72
2022-11-27T20:48:23.064Z,74.77
2022-11-27T20:50:52.451Z,74.82
2022-11-27T20:53:22.292Z,74.98
2022-11-27T20:55:52.450Z,74.75
2022-11-27T20:58:23.678Z,74.73
2022-11-27T21:00:52.815Z,74.69
2022-11-27T21:03:22.239Z,74.70
2022-11-27T21:05:52.678Z,74.84
2022-11-27T21:41:40.796Z,76.31
2022-11-27T21:44:10.138Z,76.36
2022-11-27T21:46:40.889Z,76.46
2022-11-27T21:49:13.255Z,76.66
2022-11-27T21:51:44.912Z,76.92
2022-11-27T21:54:15.450Z,76.94
2022-11-27T21:56:45.858Z,77.11
2022-11-27T21:59:15.706Z,77.06
2022-11-27T22:01:46.023Z,76.98
2022-11-27T22:04:15.614Z,77.10
2022-11-27T22:06:46.137Z,77.10
2022-11-27T22:09:16.325Z,77.02
2022-11-27T22:11:47.057Z,77.12
2022-11-27T22:14:16.658Z,77.14
2022-11-27T22:16:47.237Z,77.22
2022-11-27T22:19:17.067Z,77.27
2022-11-27T22:21:46.042Z,77.26
2022-11-27T22:24:19.345Z,77.32
2022-11-27T22:26:52.948Z,77.47
2022-11-27T22:29:21.906Z,77.43
2022-11-27T22:31:53.389Z,77.36
2022-11-27T22:37:06.246Z,77.32
2022-11-27T22:39:34.893Z,77.36
2022-11-27T22:42:04.097Z,77.19
2022-11-27T22:44:33.499Z,77.10
2022-11-27T22:47:02.078Z,77.07
2022-11-27T22:49:30.861Z,77.04
2022-11-27T22:51:59.252Z,76.97
2022-11-27T22:54:27.702Z,77.13
2022-11-27T22:56:56.176Z,77.03
2022-11-27T22:59:33.243Z,77.18
2022-11-27T23:02:03.885Z,77.31
2022-11-27T23:04:34.412Z,77.26
2022-11-27T23:07:04.440Z,77.12
2022-11-27T23:09:35.448Z,77.23
2022-11-27T23:12:04.561Z,77.20
2022-11-27T23:14:32.833Z,77.20
2022-11-27T23:17:01.184Z,77.22
2022-11-27T23:19:29.501Z,77.30
2022-11-27T23:21:57.781Z,77.23
2022-11-27T23:24:26.162Z,77.24
2022-11-27T23:26:54.505Z,77.09
2022-11-27T23:29:22.697Z,77.13
2022-11-27T23:31:51.204Z,76.94
2022-11-27T23:34:19.982Z,76.82
2022-11-27T23:36:48.320Z,76.73
2022-11-27T23:39:16.746Z,76.79
2022-11-27T23:41:45.148Z,76.79
2022-11-27T23:44:13.496Z,76.78
2022-11-27T23:46:41.710Z,76.60
2022-11-27T23:49:10.036Z,76.49
2022-11-27T23:51:38.253Z,76.48
2022-11-27T23:54:09.642Z,76.57
2022-11-27T23:56:40.402Z,76.41
2022-11-27T23:59:09.512Z,76.36
